• Join FlightAware (Why Join?)
  • Login
  • US Flag 
04:58AM EDT


 

Airport Tracker/Info


-or-


 

Live Flight TrackerFlight Track Log ✈ LBQ792 ✈ 06-May-2013 ✈ KRDG - KELM

Flight Track Log - Related Links

Times and Time Zones

All times are in EDT time to prevent confusion due to time zone crossing. See the LBQ792 flight status page for this flight to view local times or setup timezone preferences in your user account.

Time Position Orientation Groundspeed Altitude Reporting Facility
EDT Latitude Longitude Course Direction KTS MPH feet Rate Location/Type
08:34PM 40.3875 -76.0900 286° West 193 222 5,200  Level New York Center
08:36PM 40.4896 -76.1350 270° West  Level Estimated
08:36PM 40.4278 -76.2158 270° West 193 222 7,900  Level New York Center
08:37PM 40.4494 -76.2831 293° West 204 235 8,400 900 Climbing New York Center
08:38PM 40.5192 -76.4448 286° West  Level FlightAware Approximate
08:38PM 40.4972 -76.3361 320° Northwest 214 246 9,700  Level New York Center
08:39PM 40.5394 -76.5355 286° West  Level FlightAware Approximate
08:39PM 40.5483 -76.3567 343° North 208 239 11,100  Level New York Center
08:40PM 40.6119 -76.3781 346° North 208 239 12,000 420 Climbing New York Center
08:41PM 40.6711 -76.3994 345° North 230 265 12,000  Level New York Center
08:43PM 40.7769 -76.4337 346° North  Level Estimated
08:43PM 40.8150 -76.4469 346° North 260 299 12,000  Level New York Center
08:45PM 40.9196 -76.4809 346° North  Level Estimated
08:45PM 40.9650 -76.4897 346° North 259 298 12,000  Level New York Center
08:46PM 41.0367 -76.5122 347° North 259 298 12,000  Level New York Center
08:47PM 41.1083 -76.5375 345° North 259 298 12,000  Level New York Center
08:48PM 41.1742 -76.5569 347° North 259 298 12,000  Level New York Center
08:49PM 41.2481 -76.5797 347° North 259 298 12,000  Level New York Center
08:50PM 41.3300 -76.6061 346° North 259 298 12,000  Level New York Center
08:51PM 41.4019 -76.6264 348° North 259 298 12,000  Level New York Center
08:52PM 41.4739 -76.6492 347° North 265 305 12,000  Level New York Center
08:53PM 41.5394 -76.6686 347° North 265 305 12,000 -60 Level New York Center
08:54PM 41.6111 -76.6944 345° North 265 305 11,900 -780 Descending New York Center
08:56PM 41.7667 -76.7472 346° North 282 325 9,700 -1,200 Descending New York Center
08:57PM 41.8431 -76.7625 352° North 282 325 8,400 -1,380 Descending New York Center
08:58PM 41.9194 -76.7750 353° North 276 318 7,000 -1,440 Descending New York Center